Port Angeles, WA

2:45 AM PST on December 10, 2016 (GMT -0800)
| | Change Station

Elev -9999 ft 0.00 °N, 0.00 °E | Updated 15 seconds ago

Partly Cloudy
Partly Cloudy
45 °F
Feels Like 37 °F
N
17
Wind Variable Wind from West
Gusts 24 mph

Today
High -- | Low -- °F
--% Chance of Precip.
Yesterday
High -- | Low -- °F
Precip. -- in
Pressure 29.80 in
Visibility 10.0 miles
Clouds Few 10000 ft
Windchill 37 °F
Dew Point 41 °F
Humidity 84%
Rainfall --
Snow Depth Not available.
7:53 AM 4:19 PM
Waxing Gibbous, 82% visible
METAR KCLM 100953Z AUTO 24007KT 10SM FEW100 02/01 A2979 RMK AO2 SLP089 T00170011
Pressure 29.80 in
Visibility 10.0 miles
Clouds Few 10000 ft
Windchill 37 °F
Dew Point 41 °F
Humidity 84%
Rainfall --
Snow Depth Not available.
7:53 AM 4:19 PM
Waxing Gibbous, 82% visible
METAR KCLM 100953Z AUTO 24007KT 10SM FEW100 02/01 A2979 RMK AO2 SLP089 T00170011

10-Day Weather Forecast

Almanac

Astronomy

Dec. 10, 2016 Rise Set
Actual Time
Civil Twilight
Nautical Twilight
Astronomical Twilight
Moon
Length of Visible Light
Length of Day
Tomorrow will be .
, % of the Moon is Illuminated

Today's Extremes

State Highs State Lows

Community

WunderPhotos

Upload Photos

1,956,536 photos uploaded!

WunderBlog® & News

Nearby

Air Quality

  Air Quality AQ Index Pollutant
Not available.

Snow Depth

Station Depth Elevation

Earthquake Activity

City Distance Mag. Time & Date
Minimum magnitude displayed is 2.5.

Coastal Water Temperatures

Place Temperature

Stations

Nearby Weather Stations

Station Location Temp. Windchill Dew Point Humidity Wind Precip. Elev Updated Type
                   

Watches & Warnings

There are currently no watches in effect.